createdAt,value
2022-12-22T00:00:58.335Z,100.00
2022-12-22T00:05:59.890Z,100.00
2022-12-22T00:11:02.049Z,100.00
2022-12-22T00:16:03.942Z,100.00
2022-12-22T00:21:05.478Z,100.00
2022-12-22T00:26:08.564Z,100.00
2022-12-22T00:31:10.165Z,100.00
2022-12-22T00:36:13.280Z,100.00
2022-12-22T00:41:14.772Z,100.00
2022-12-22T00:46:18.525Z,100.00
2022-12-22T00:51:20.147Z,100.00
2022-12-22T00:56:21.592Z,100.00
2022-12-22T01:01:23.615Z,100.00
2022-12-22T01:06:30.240Z,100.00
2022-12-22T01:11:33.061Z,100.00
2022-12-22T01:16:36.061Z,100.00
2022-12-22T01:21:37.587Z,100.00
2022-12-22T01:26:39.920Z,100.00
2022-12-22T01:31:42.201Z,100.00
2022-12-22T01:36:43.672Z,100.00
2022-12-22T01:41:47.117Z,100.00
2022-12-22T01:46:50.152Z,100.00
2022-12-22T01:51:51.779Z,100.00
2022-12-22T01:56:53.690Z,100.00
2022-12-22T02:01:55.457Z,100.00
2022-12-22T02:07:04.575Z,100.00
2022-12-22T02:12:18.832Z,100.00
2022-12-22T02:17:42.160Z,100.00
2022-12-22T02:22:51.291Z,100.00
2022-12-22T02:27:55.001Z,100.00
2022-12-22T02:32:56.752Z,100.00
2022-12-22T02:38:02.873Z,100.00
2022-12-22T02:43:28.165Z,100.00
2022-12-22T02:48:47.072Z,100.00
2022-12-22T02:53:49.864Z,100.00
2022-12-22T02:58:51.724Z,100.00
2022-12-22T03:03:56.151Z,100.00
2022-12-22T03:14:15.109Z,100.00
2022-12-22T03:19:19.199Z,100.00
2022-12-22T03:24:20.824Z,100.00
2022-12-22T03:29:25.012Z,100.00
2022-12-22T03:34:27.089Z,100.00
2022-12-22T03:39:29.613Z,100.00
2022-12-22T03:44:31.159Z,100.00
2022-12-22T03:49:38.950Z,100.00
2022-12-22T03:54:41.744Z,100.00
2022-12-22T04:05:52.494Z,100.00
2022-12-22T04:11:12.937Z,100.00
2022-12-22T04:16:15.598Z,100.00
2022-12-22T04:21:19.045Z,100.00
2022-12-22T04:26:26.261Z,100.00
2022-12-22T04:31:28.294Z,100.00
2022-12-22T04:36:30.732Z,100.00
2022-12-22T04:41:32.871Z,100.00
2022-12-22T04:46:34.820Z,100.00
2022-12-22T04:51:36.852Z,100.00
2022-12-22T04:56:38.609Z,100.00
2022-12-22T05:01:40.550Z,100.00
2022-12-22T05:06:42.802Z,100.00
2022-12-22T05:11:44.830Z,100.00
2022-12-22T05:16:46.657Z,100.00
2022-12-22T05:21:48.292Z,100.00
2022-12-22T05:26:49.990Z,100.00
2022-12-22T05:31:55.013Z,100.00
2022-12-22T05:36:56.620Z,100.00
2022-12-22T05:42:01.681Z,100.00
2022-12-22T05:47:03.217Z,100.00
2022-12-22T05:52:05.064Z,100.00
2022-12-22T05:57:06.549Z,100.00
2022-12-22T06:02:08.279Z,100.00
2022-12-22T06:07:10.099Z,100.00
2022-12-22T06:12:11.799Z,100.00
2022-12-22T06:17:13.351Z,100.00
2022-12-22T06:22:15.121Z,100.00
2022-12-22T06:27:22.172Z,100.00
2022-12-22T06:32:23.933Z,100.00
2022-12-22T06:37:25.622Z,100.00
2022-12-22T06:42:27.198Z,100.00
2022-12-22T06:47:31.991Z,100.00
2022-12-22T06:52:33.641Z,100.00
2022-12-22T06:57:35.240Z,100.00
2022-12-22T07:02:36.949Z,100.00
2022-12-22T07:07:38.689Z,100.00
2022-12-22T07:12:40.233Z,100.00
2022-12-22T07:17:41.871Z,100.00
2022-12-22T07:22:43.567Z,100.00
2022-12-22T07:27:47.696Z,100.00
2022-12-22T07:33:59.527Z,100.00
2022-12-22T07:55:56.889Z,100.00
2022-12-22T08:07:38.309Z,100.00
2022-12-22T08:12:46.064Z,100.00
2022-12-22T08:23:46.831Z,100.00
2022-12-22T08:41:38.092Z,100.00
2022-12-22T08:46:46.342Z,100.00
2022-12-22T08:52:00.174Z,100.00
2022-12-22T08:57:15.607Z,100.00
2022-12-22T09:03:17.333Z,100.00
2022-12-22T09:07:54.558Z,100.00
2022-12-22T09:12:56.004Z,100.00
2022-12-22T09:17:57.641Z,100.00
2022-12-22T09:23:00.171Z,100.00
2022-12-22T09:28:01.578Z,100.00
2022-12-22T09:33:03.059Z,100.00
2022-12-22T09:38:04.550Z,100.00
2022-12-22T09:43:07.240Z,100.00
2022-12-22T09:48:13.460Z,100.00
2022-12-22T09:53:23.471Z,100.00
2022-12-22T09:58:31.666Z,100.00
2022-12-22T10:03:56.539Z,100.00
2022-12-22T10:09:46.260Z,100.00
2022-12-22T10:14:43.495Z,100.00
2022-12-22T10:19:48.841Z,100.00
2022-12-22T10:24:50.856Z,100.00
2022-12-22T10:29:53.543Z,100.00
2022-12-22T10:35:02.469Z,100.00
2022-12-22T10:40:23.574Z,100.00
2022-12-22T10:45:27.908Z,100.00
2022-12-22T10:50:30.237Z,100.00
2022-12-22T10:55:31.825Z,100.00
2022-12-22T11:00:33.561Z,100.00
2022-12-22T11:05:35.010Z,100.00
2022-12-22T11:11:01.155Z,100.00
2022-12-22T11:16:11.693Z,100.00
2022-12-22T11:21:52.420Z,100.00
2022-12-22T11:27:20.396Z,100.00
2022-12-22T11:32:38.163Z,100.00
2022-12-22T11:37:42.599Z,100.00
2022-12-22T11:42:57.217Z,100.00
2022-12-22T11:48:07.750Z,100.00
2022-12-22T11:53:27.379Z,100.00
2022-12-22T11:58:47.506Z,100.00
2022-12-22T12:03:53.354Z,100.00
2022-12-22T12:09:27.474Z,100.00
2022-12-22T12:14:40.323Z,100.00
2022-12-22T12:26:40.602Z,98.23
2022-12-22T12:32:11.684Z,96.81
2022-12-22T12:37:26.565Z,98.59
2022-12-22T12:43:03.968Z,100.00
2022-12-22T12:48:22.255Z,98.06
2022-12-22T12:53:31.087Z,96.99
2022-12-22T12:58:45.326Z,97.39
2022-12-22T13:04:03.071Z,96.59
2022-12-22T13:09:39.972Z,99.22
2022-12-22T13:14:56.057Z,98.22
2022-12-22T13:19:57.850Z,96.82
2022-12-22T13:25:02.085Z,99.41
2022-12-22T13:30:11.227Z,100.00
2022-12-22T13:35:33.333Z,100.00
2022-12-22T13:40:45.264Z,100.00
2022-12-22T13:45:50.188Z,100.00
2022-12-22T13:50:57.168Z,100.00
2022-12-22T13:55:59.141Z,100.00
2022-12-22T14:01:08.046Z,100.00
2022-12-22T14:06:29.055Z,100.00
2022-12-22T14:11:31.858Z,100.00
2022-12-22T14:16:34.184Z,100.00
2022-12-22T14:21:36.262Z,100.00
2022-12-22T14:26:38.218Z,100.00
2022-12-22T14:32:00.652Z,100.00
2022-12-22T14:37:02.656Z,100.00
2022-12-22T14:42:11.692Z,100.00
2022-12-22T14:47:15.632Z,100.00
2022-12-22T14:52:33.473Z,100.00
2022-12-22T14:57:42.607Z,100.00
2022-12-22T15:02:53.235Z,100.00
2022-12-22T15:08:06.708Z,100.00
2022-12-22T15:18:27.379Z,100.00
2022-12-22T15:23:32.036Z,100.00
2022-12-22T15:28:33.488Z,100.00
2022-12-22T15:33:34.935Z,100.00
2022-12-22T15:38:38.982Z,100.00
2022-12-22T15:43:58.368Z,100.00
2022-12-22T15:49:00.617Z,100.00
2022-12-22T15:54:03.835Z,100.00
2022-12-22T15:59:05.707Z,100.00
2022-12-22T16:04:07.265Z,100.00
2022-12-22T16:09:18.060Z,100.00
2022-12-22T16:14:21.069Z,100.00
2022-12-22T16:19:22.460Z,100.00
2022-12-22T16:24:30.866Z,100.00
2022-12-22T16:29:32.357Z,100.00
2022-12-22T16:34:33.771Z,100.00
2022-12-22T16:39:35.188Z,100.00
2022-12-22T16:49:55.658Z,100.00
2022-12-22T16:54:57.113Z,100.00
2022-12-22T16:59:58.982Z,100.00
2022-12-22T17:05:02.239Z,100.00
2022-12-22T17:10:03.861Z,100.00
2022-12-22T17:15:05.540Z,100.00
2022-12-22T17:20:07.666Z,100.00
2022-12-22T17:25:17.605Z,100.00
2022-12-22T17:30:22.491Z,100.00
2022-12-22T17:35:25.978Z,100.00
2022-12-22T17:40:29.273Z,100.00
2022-12-22T17:45:30.749Z,100.00
2022-12-22T17:50:32.187Z,100.00
2022-12-22T18:00:54.913Z,100.00
2022-12-22T18:05:56.460Z,100.00
2022-12-22T18:11:01.976Z,100.00
2022-12-22T18:16:03.493Z,100.00
2022-12-22T18:21:07.410Z,100.00
2022-12-22T18:26:18.156Z,100.00
2022-12-22T18:31:20.123Z,100.00
2022-12-22T18:36:33.937Z,100.00
2022-12-22T18:41:35.536Z,100.00
2022-12-22T18:46:36.902Z,100.00
2022-12-22T18:51:38.623Z,100.00
2022-12-22T18:56:40.031Z,100.00
2022-12-22T19:01:41.711Z,100.00
2022-12-22T19:06:46.329Z,100.00
2022-12-22T19:11:47.758Z,100.00
2022-12-22T19:16:49.426Z,100.00
2022-12-22T19:21:50.937Z,100.00
2022-12-22T19:26:52.400Z,100.00
2022-12-22T19:31:53.868Z,100.00
2022-12-22T19:36:55.371Z,100.00
2022-12-22T19:41:56.826Z,100.00
2022-12-22T19:46:59.630Z,100.00
2022-12-22T19:52:01.038Z,100.00
2022-12-22T19:57:03.521Z,100.00
2022-12-22T20:02:27.069Z,100.00
2022-12-22T20:07:30.212Z,100.00
2022-12-22T20:12:37.407Z,100.00
2022-12-22T20:17:38.817Z,100.00
2022-12-22T20:22:44.572Z,100.00
2022-12-22T20:27:45.944Z,100.00
2022-12-22T20:32:47.696Z,100.00
2022-12-22T20:37:50.148Z,100.00
2022-12-22T20:42:51.666Z,100.00
2022-12-22T20:47:53.700Z,100.00
2022-12-22T20:52:56.905Z,100.00
2022-12-22T20:57:58.306Z,100.00
2022-12-22T21:03:00.011Z,100.00
2022-12-22T21:08:01.721Z,100.00
2022-12-22T21:13:03.078Z,100.00
2022-12-22T21:18:06.945Z,100.00
2022-12-22T21:23:08.544Z,100.00
2022-12-22T21:28:21.105Z,100.00
2022-12-22T21:33:22.583Z,100.00
2022-12-22T21:38:27.511Z,100.00
2022-12-22T21:43:28.950Z,100.00
2022-12-22T21:48:30.340Z,100.00
2022-12-22T21:53:31.726Z,100.00
2022-12-22T21:58:33.161Z,100.00
2022-12-22T22:03:34.570Z,100.00
2022-12-22T22:08:35.945Z,100.00
2022-12-22T22:13:37.284Z,100.00
2022-12-22T22:18:40.128Z,100.00
2022-12-22T22:23:42.183Z,100.00
2022-12-22T22:28:43.732Z,100.00
2022-12-22T22:33:48.964Z,100.00
2022-12-22T22:38:50.896Z,100.00
2022-12-22T22:43:55.256Z,100.00
2022-12-22T22:48:56.583Z,100.00
2022-12-22T22:53:58.251Z,100.00
2022-12-22T22:59:00.099Z,100.00
2022-12-22T23:04:01.888Z,100.00
2022-12-22T23:09:04.029Z,100.00
2022-12-22T23:14:19.679Z,100.00
2022-12-22T23:19:21.209Z,100.00
2022-12-22T23:24:23.033Z,100.00
2022-12-22T23:29:24.783Z,100.00
2022-12-22T23:34:29.314Z,100.00
2022-12-22T23:39:30.756Z,100.00
2022-12-22T23:44:32.105Z,100.00
2022-12-22T23:49:33.649Z,100.00
2022-12-22T23:54:35.050Z,100.00
2022-12-22T23:59:36.494Z,100.00
